sensor_id;sensor_type;location;lat;lon;timestamp;pressure;altitude;pressure_sealevel;temperature;humidity
74881;BME280;63427;49.654;6.596;2023-11-18T00:01:11;100606.37;;;8.95;44.37
74881;BME280;63427;49.654;6.596;2023-11-18T00:03:37;100602.03;;;9.15;44.33
74881;BME280;63427;49.654;6.596;2023-11-18T00:06:02;100597.60;;;9.21;44.31
74881;BME280;63427;49.654;6.596;2023-11-18T00:08:39;100591.70;;;9.18;44.06
74881;BME280;63427;49.654;6.596;2023-11-18T00:10:53;100584.61;;;9.20;44.12
74881;BME280;63427;49.654;6.596;2023-11-18T00:13:18;100578.98;;;9.19;44.19
74881;BME280;63427;49.654;6.596;2023-11-18T00:15:44;100576.27;;;9.24;44.14
74881;BME280;63427;49.654;6.596;2023-11-18T00:18:09;100566.22;;;9.27;43.87
74881;BME280;63427;49.654;6.596;2023-11-18T00:20:35;100563.22;;;9.21;43.94
74881;BME280;63427;49.654;6.596;2023-11-18T00:23:01;100563.52;;;9.18;43.70
74881;BME280;63427;49.654;6.596;2023-11-18T00:25:25;100570.52;;;9.14;43.94
74881;BME280;63427;49.654;6.596;2023-11-18T00:27:50;100574.36;;;9.12;43.83
74881;BME280;63427;49.654;6.596;2023-11-18T00:30:16;100571.67;;;9.31;43.76
74881;BME280;63427;49.654;6.596;2023-11-18T00:32:42;100571.43;;;9.08;43.83
74881;BME280;63427;49.654;6.596;2023-11-18T00:35:07;100571.76;;;9.19;43.76
74881;BME280;63427;49.654;6.596;2023-11-18T00:39:58;100577.45;;;9.22;43.39
74881;BME280;63427;49.654;6.596;2023-11-18T00:42:25;100576.65;;;9.52;42.59
74881;BME280;63427;49.654;6.596;2023-11-18T00:44:48;100579.63;;;9.35;42.76
74881;BME280;63427;49.654;6.596;2023-11-18T00:47:14;100582.19;;;9.11;42.82
74881;BME280;63427;49.654;6.596;2023-11-18T00:49:39;100581.77;;;9.17;43.33
74881;BME280;63427;49.654;6.596;2023-11-18T00:52:05;100579.27;;;9.31;43.20
74881;BME280;63427;49.654;6.596;2023-11-18T00:54:30;100570.43;;;9.27;43.42
74881;BME280;63427;49.654;6.596;2023-11-18T00:56:56;100567.15;;;9.39;43.37
74881;BME280;63427;49.654;6.596;2023-11-18T00:59:21;100561.74;;;9.14;43.35
74881;BME280;63427;49.654;6.596;2023-11-18T01:01:47;100559.58;;;9.17;43.45
74881;BME280;63427;49.654;6.596;2023-11-18T01:04:14;100554.97;;;9.14;43.51
74881;BME280;63427;49.654;6.596;2023-11-18T01:06:38;100557.72;;;9.29;43.61
74881;BME280;63427;49.654;6.596;2023-11-18T01:09:04;100560.39;;;9.12;43.45
74881;BME280;63427;49.654;6.596;2023-11-18T01:11:29;100561.89;;;9.27;43.86
74881;BME280;63427;49.654;6.596;2023-11-18T01:13:55;100564.20;;;9.32;43.50
74881;BME280;63427;49.654;6.596;2023-11-18T01:16:21;100561.44;;;9.19;43.42
74881;BME280;63427;49.654;6.596;2023-11-18T01:18:45;100562.86;;;8.93;44.35
74881;BME280;63427;49.654;6.596;2023-11-18T01:21:18;100566.55;;;8.99;44.27
74881;BME280;63427;49.654;6.596;2023-11-18T01:23:36;100569.56;;;9.02;44.39
74881;BME280;63427;49.654;6.596;2023-11-18T01:26:02;100569.78;;;8.98;44.27
74881;BME280;63427;49.654;6.596;2023-11-18T02:26:42;100578.83;;;8.58;44.14
74881;BME280;63427;49.654;6.596;2023-11-18T02:34:01;100580.33;;;8.96;44.01
74881;BME280;63427;49.654;6.596;2023-11-18T02:36:26;100580.52;;;8.78;44.26
74881;BME280;63427;49.654;6.596;2023-11-18T02:38:49;100584.85;;;8.97;43.99
74881;BME280;63427;49.654;6.596;2023-11-18T02:41:13;100590.52;;;9.01;43.98
74881;BME280;63427;49.654;6.596;2023-11-18T02:43:38;100590.85;;;9.15;43.89
74881;BME280;63427;49.654;6.596;2023-11-18T02:46:03;100594.98;;;9.26;43.83
74881;BME280;63427;49.654;6.596;2023-11-18T02:48:36;100589.11;;;9.12;43.92
74881;BME280;63427;49.654;6.596;2023-11-18T02:50:53;100584.27;;;9.23;43.74
74881;BME280;63427;49.654;6.596;2023-11-18T02:53:25;100583.75;;;9.10;43.52
74881;BME280;63427;49.654;6.596;2023-11-18T02:55:43;100580.28;;;9.36;43.37
74881;BME280;63427;49.654;6.596;2023-11-18T02:58:08;100578.82;;;9.33;43.70
74881;BME280;63427;49.654;6.596;2023-11-18T03:00:35;100576.12;;;9.35;43.43
74881;BME280;63427;49.654;6.596;2023-11-18T03:02:59;100574.25;;;9.41;42.94
74881;BME280;63427;49.654;6.596;2023-11-18T03:05:25;100578.14;;;9.03;43.32
74881;BME280;63427;49.654;6.596;2023-11-18T03:07:50;100582.13;;;9.30;43.23
74881;BME280;63427;49.654;6.596;2023-11-18T03:10:16;100580.54;;;9.26;43.45
74881;BME280;63427;49.654;6.596;2023-11-18T03:12:41;100581.28;;;9.19;43.51
74881;BME280;63427;49.654;6.596;2023-11-18T03:15:07;100568.43;;;8.92;43.60
74881;BME280;63427;49.654;6.596;2023-11-18T03:17:31;100570.65;;;9.26;43.55
74881;BME280;63427;49.654;6.596;2023-11-18T03:19:56;100574.37;;;9.11;43.71
74881;BME280;63427;49.654;6.596;2023-11-18T03:22:22;100579.38;;;9.08;43.83
74881;BME280;63427;49.654;6.596;2023-11-18T03:24:49;100578.89;;;9.11;43.82
74881;BME280;63427;49.654;6.596;2023-11-18T03:27:13;100578.83;;;9.30;43.51
74881;BME280;63427;49.654;6.596;2023-11-18T03:29:40;100575.25;;;9.13;43.39
74881;BME280;63427;49.654;6.596;2023-11-18T03:32:05;100576.06;;;9.14;43.45
74881;BME280;63427;49.654;6.596;2023-11-18T03:34:34;100578.69;;;9.14;43.85
74881;BME280;63427;49.654;6.596;2023-11-18T03:37:01;100579.97;;;9.05;43.77
74881;BME280;63427;49.654;6.596;2023-11-18T03:39:21;100582.45;;;9.06;43.75
74881;BME280;63427;49.654;6.596;2023-11-18T03:41:47;100580.47;;;9.05;44.12
74881;BME280;63427;49.654;6.596;2023-11-18T03:44:13;100575.50;;;9.10;43.60
74881;BME280;63427;49.654;6.596;2023-11-18T03:49:03;100563.61;;;8.91;43.55
74881;BME280;63427;49.654;6.596;2023-11-18T03:51:29;100557.67;;;9.17;43.61
74881;BME280;63427;49.654;6.596;2023-11-18T03:53:54;100554.16;;;9.27;43.22
74881;BME280;63427;49.654;6.596;2023-11-18T03:56:20;100549.87;;;9.38;43.57
74881;BME280;63427;49.654;6.596;2023-11-18T03:58:56;100548.30;;;9.13;43.52
74881;BME280;63427;49.654;6.596;2023-11-18T04:01:22;100549.91;;;9.21;43.27
74881;BME280;63427;49.654;6.596;2023-11-18T04:03:39;100552.91;;;9.28;43.36
74881;BME280;63427;49.654;6.596;2023-11-18T04:06:03;100546.21;;;9.25;43.19
74881;BME280;63427;49.654;6.596;2023-11-18T04:08:49;100546.10;;;9.30;42.88
74881;BME280;63427;49.654;6.596;2023-11-18T04:10:54;100546.90;;;9.58;43.34
74881;BME280;63427;49.654;6.596;2023-11-18T04:13:19;100544.39;;;9.47;43.24
74881;BME280;63427;49.654;6.596;2023-11-18T04:15:45;100539.73;;;9.67;43.48
74881;BME280;63427;49.654;6.596;2023-11-18T04:18:11;100535.76;;;9.34;44.04
74881;BME280;63427;49.654;6.596;2023-11-18T04:20:36;100536.40;;;8.77;44.34
74881;BME280;63427;49.654;6.596;2023-11-18T04:23:02;100545.88;;;9.07;44.76
74881;BME280;63427;49.654;6.596;2023-11-18T04:25:28;100550.92;;;9.05;44.85
74881;BME280;63427;49.654;6.596;2023-11-18T04:27:53;100545.83;;;8.90;45.18
74881;BME280;63427;49.654;6.596;2023-11-18T04:30:19;100547.14;;;9.30;44.52
74881;BME280;63427;49.654;6.596;2023-11-18T04:32:54;100543.14;;;8.87;45.12
74881;BME280;63427;49.654;6.596;2023-11-18T04:35:10;100541.17;;;9.32;44.77
74881;BME280;63427;49.654;6.596;2023-11-18T04:37:40;100537.35;;;9.19;44.78
74881;BME280;63427;49.654;6.596;2023-11-18T04:40:00;100536.84;;;9.44;44.66
74881;BME280;63427;49.654;6.596;2023-11-18T04:42:26;100537.52;;;9.39;44.45
74881;BME280;63427;49.654;6.596;2023-11-18T04:44:51;100535.03;;;9.05;44.21
74881;BME280;63427;49.654;6.596;2023-11-18T04:47:16;100535.86;;;8.97;44.34
74881;BME280;63427;49.654;6.596;2023-11-18T04:49:48;100532.55;;;9.39;43.72
74881;BME280;63427;49.654;6.596;2023-11-18T04:52:08;100527.00;;;9.74;44.18
74881;BME280;63427;49.654;6.596;2023-11-18T04:54:33;100536.22;;;9.44;43.84
74881;BME280;63427;49.654;6.596;2023-11-18T04:56:59;100536.60;;;9.66;43.45
74881;BME280;63427;49.654;6.596;2023-11-18T04:59:24;100528.45;;;9.26;43.51
74881;BME280;63427;49.654;6.596;2023-11-18T05:01:50;100522.15;;;9.57;43.36
74881;BME280;63427;49.654;6.596;2023-11-18T05:06:44;100520.96;;;9.59;43.28
74881;BME280;63427;49.654;6.596;2023-11-18T05:09:06;100516.60;;;8.91;43.52
74881;BME280;63427;49.654;6.596;2023-11-18T05:11:31;100515.99;;;9.44;43.63
74881;BME280;63427;49.654;6.596;2023-11-18T05:13:57;100514.20;;;9.63;43.39
74881;BME280;63427;49.654;6.596;2023-11-18T05:16:22;100509.14;;;9.57;43.62
74881;BME280;63427;49.654;6.596;2023-11-18T05:18:54;100509.23;;;9.51;43.90
74881;BME280;63427;49.654;6.596;2023-11-18T05:21:14;100505.31;;;9.23;44.20
74881;BME280;63427;49.654;6.596;2023-11-18T05:23:39;100496.13;;;9.16;44.46
74881;BME280;63427;49.654;6.596;2023-11-18T05:26:05;100499.94;;;9.00;45.05
74881;BME280;63427;49.654;6.596;2023-11-18T05:45:28;100489.60;;;9.42;45.37
74881;BME280;63427;49.654;6.596;2023-11-18T06:07:18;100461.85;;;9.05;45.32
74881;BME280;63427;49.654;6.596;2023-11-18T06:09:43;100467.45;;;8.97;45.82
74881;BME280;63427;49.654;6.596;2023-11-18T06:12:07;100468.04;;;9.27;45.87
74881;BME280;63427;49.654;6.596;2023-11-18T06:14:33;100470.71;;;9.36;45.67
74881;BME280;63427;49.654;6.596;2023-11-18T06:16:58;100473.36;;;9.06;45.81
74881;BME280;63427;49.654;6.596;2023-11-18T06:19:23;100473.26;;;9.04;45.97
74881;BME280;63427;49.654;6.596;2023-11-18T06:21:49;100466.44;;;8.82;46.32
74881;BME280;63427;49.654;6.596;2023-11-18T06:24:14;100467.03;;;9.15;46.43
74881;BME280;63427;49.654;6.596;2023-11-18T06:26:39;100462.80;;;8.92;46.90
74881;BME280;63427;49.654;6.596;2023-11-18T06:31:31;100459.23;;;8.81;46.29
74881;BME280;63427;49.654;6.596;2023-11-18T06:33:56;100456.35;;;8.85;46.10
74881;BME280;63427;49.654;6.596;2023-11-18T06:36:21;100454.94;;;8.99;46.03
74881;BME280;63427;49.654;6.596;2023-11-18T06:46:05;100449.14;;;9.42;44.48
74881;BME280;63427;49.654;6.596;2023-11-18T06:48:28;100457.83;;;10.10;44.12
74881;BME280;63427;49.654;6.596;2023-11-18T06:50:54;100456.41;;;9.73;44.59
74881;BME280;63427;49.654;6.596;2023-11-18T06:53:19;100451.96;;;9.71;44.85
74881;BME280;63427;49.654;6.596;2023-11-18T06:55:45;100445.81;;;9.50;45.02
74881;BME280;63427;49.654;6.596;2023-11-18T06:58:10;100441.82;;;9.64;45.14
74881;BME280;63427;49.654;6.596;2023-11-18T07:00:36;100434.31;;;9.36;44.96
74881;BME280;63427;49.654;6.596;2023-11-18T07:03:01;100425.30;;;9.53;45.11
74881;BME280;63427;49.654;6.596;2023-11-18T07:05:26;100440.47;;;9.57;44.85
74881;BME280;63427;49.654;6.596;2023-11-18T07:07:51;100443.11;;;9.44;45.17
74881;BME280;63427;49.654;6.596;2023-11-18T07:10:16;100445.80;;;9.40;45.62
74881;BME280;63427;49.654;6.596;2023-11-18T07:12:42;100454.89;;;9.76;45.56
74881;BME280;63427;49.654;6.596;2023-11-18T07:15:08;100463.77;;;9.49;45.45
74881;BME280;63427;49.654;6.596;2023-11-18T07:17:33;100470.23;;;9.50;45.20
74881;BME280;63427;49.654;6.596;2023-11-18T07:19:58;100465.24;;;9.78;45.39
74881;BME280;63427;49.654;6.596;2023-11-18T07:22:23;100457.29;;;9.48;45.15
74881;BME280;63427;49.654;6.596;2023-11-18T07:24:55;100453.78;;;9.94;45.24
74881;BME280;63427;49.654;6.596;2023-11-18T07:27:14;100450.28;;;9.58;45.14
74881;BME280;63427;49.654;6.596;2023-11-18T07:29:40;100447.99;;;9.93;45.35
74881;BME280;63427;49.654;6.596;2023-11-18T07:32:06;100445.40;;;9.86;45.43
74881;BME280;63427;49.654;6.596;2023-11-18T07:34:51;100440.85;;;9.57;45.34
74881;BME280;63427;49.654;6.596;2023-11-18T07:36:56;100437.71;;;9.55;45.66
74881;BME280;63427;49.654;6.596;2023-11-18T07:39:22;100436.32;;;9.99;44.99
74881;BME280;63427;49.654;6.596;2023-11-18T07:41:47;100442.49;;;9.62;45.17
74881;BME280;63427;49.654;6.596;2023-11-18T07:44:13;100449.13;;;9.39;45.77
74881;BME280;63427;49.654;6.596;2023-11-18T07:49:10;100463.41;;;9.41;45.46
74881;BME280;63427;49.654;6.596;2023-11-18T07:51:30;100465.56;;;9.81;45.01
74881;BME280;63427;49.654;6.596;2023-11-18T07:53:55;100470.92;;;9.69;45.24
74881;BME280;63427;49.654;6.596;2023-11-18T07:56:20;100477.01;;;9.62;45.43
74881;BME280;63427;49.654;6.596;2023-11-18T07:58:45;100475.01;;;9.66;45.36
74881;BME280;63427;49.654;6.596;2023-11-18T08:01:11;100459.80;;;9.67;45.35
74881;BME280;63427;49.654;6.596;2023-11-18T08:03:36;100451.19;;;9.80;45.19
74881;BME280;63427;49.654;6.596;2023-11-18T08:06:01;100447.20;;;9.67;44.78
74881;BME280;63427;49.654;6.596;2023-11-18T08:08:26;100452.07;;;10.00;44.63
74881;BME280;63427;49.654;6.596;2023-11-18T08:10:54;100454.87;;;10.33;44.48
74881;BME280;63427;49.654;6.596;2023-11-18T08:13:18;100442.07;;;10.06;44.52
74881;BME280;63427;49.654;6.596;2023-11-18T08:15:44;100424.69;;;10.37;43.99
74881;BME280;63427;49.654;6.596;2023-11-18T08:18:15;100422.30;;;10.04;44.40
74881;BME280;63427;49.654;6.596;2023-11-18T08:20:34;100419.50;;;10.22;43.99
74881;BME280;63427;49.654;6.596;2023-11-18T08:23:00;100423.54;;;10.42;44.39
74881;BME280;63427;49.654;6.596;2023-11-18T08:25:25;100425.09;;;10.88;44.06
74881;BME280;63427;49.654;6.596;2023-11-18T08:27:50;100432.06;;;10.73;43.73
74881;BME280;63427;49.654;6.596;2023-11-18T08:30:15;100440.38;;;10.69;43.92
74881;BME280;63427;49.654;6.596;2023-11-18T08:32:41;100443.88;;;10.55;43.76
74881;BME280;63427;49.654;6.596;2023-11-18T08:35:06;100442.88;;;10.62;43.34
74881;BME280;63427;49.654;6.596;2023-11-18T08:37:32;100443.05;;;10.43;43.59
74881;BME280;63427;49.654;6.596;2023-11-18T08:39:57;100447.36;;;10.54;43.27
74881;BME280;63427;49.654;6.596;2023-11-18T08:42:43;100446.04;;;10.65;43.20
74881;BME280;63427;49.654;6.596;2023-11-18T08:44:48;100456.70;;;10.28;43.41
74881;BME280;63427;49.654;6.596;2023-11-18T08:47:13;100456.68;;;10.65;43.71
74881;BME280;63427;49.654;6.596;2023-11-18T08:49:42;100461.73;;;10.34;43.77
74881;BME280;63427;49.654;6.596;2023-11-18T08:52:05;100472.45;;;10.61;43.95
74881;BME280;63427;49.654;6.596;2023-11-18T08:54:30;100468.86;;;10.25;43.78
74881;BME280;63427;49.654;6.596;2023-11-18T08:56:56;100467.82;;;9.87;44.00
74881;BME280;63427;49.654;6.596;2023-11-18T08:59:21;100468.77;;;10.19;43.82
74881;BME280;63427;49.654;6.596;2023-11-18T09:01:46;100462.20;;;10.17;44.07
74881;BME280;63427;49.654;6.596;2023-11-18T09:04:12;100458.96;;;10.03;44.06
74881;BME280;63427;49.654;6.596;2023-11-18T09:06:37;100462.28;;;10.36;43.70
74881;BME280;63427;49.654;6.596;2023-11-18T09:09:11;100458.04;;;10.24;43.88
74881;BME280;63427;49.654;6.596;2023-11-18T09:11:29;100452.63;;;10.14;44.12
74881;BME280;63427;49.654;6.596;2023-11-18T09:13:54;100455.17;;;10.07;44.07
74881;BME280;63427;49.654;6.596;2023-11-18T09:16:21;100457.71;;;10.03;44.18
74881;BME280;63427;49.654;6.596;2023-11-18T09:21:12;100456.94;;;10.39;43.99
74881;BME280;63427;49.654;6.596;2023-11-18T09:23:37;100456.17;;;10.32;43.78
74881;BME280;63427;49.654;6.596;2023-11-18T09:26:03;100454.30;;;10.44;43.51
74881;BME280;63427;49.654;6.596;2023-11-18T09:28:33;100458.04;;;10.67;43.57
74881;BME280;63427;49.654;6.596;2023-11-18T09:30:53;100452.64;;;10.28;43.52
74881;BME280;63427;49.654;6.596;2023-11-18T09:33:26;100453.88;;;10.29;43.87
74881;BME280;63427;49.654;6.596;2023-11-18T09:35:49;100456.34;;;10.30;44.24
74881;BME280;63427;49.654;6.596;2023-11-18T09:38:10;100457.29;;;10.27;44.32
74881;BME280;63427;49.654;6.596;2023-11-18T09:40:36;100455.57;;;10.14;44.06
74881;BME280;63427;49.654;6.596;2023-11-18T09:43:00;100458.70;;;10.64;43.57
74881;BME280;63427;49.654;6.596;2023-11-18T09:45:25;100459.63;;;10.29;44.24
74881;BME280;63427;49.654;6.596;2023-11-18T09:47:51;100465.86;;;10.50;43.97
74881;BME280;63427;49.654;6.596;2023-11-18T09:52:46;100472.03;;;10.29;44.04
74881;BME280;63427;49.654;6.596;2023-11-18T09:57:34;100466.40;;;10.55;43.48
74881;BME280;63427;49.654;6.596;2023-11-18T10:00:01;100473.96;;;10.96;42.76
74881;BME280;63427;49.654;6.596;2023-11-18T10:02:24;100475.33;;;10.80;42.77
74881;BME280;63427;49.654;6.596;2023-11-18T10:04:49;100472.51;;;10.52;42.45
74881;BME280;63427;49.654;6.596;2023-11-18T10:07:15;100474.82;;;10.57;42.83
74881;BME280;63427;49.654;6.596;2023-11-18T10:09:39;100467.21;;;10.53;43.42
74881;BME280;63427;49.654;6.596;2023-11-18T10:12:05;100458.61;;;10.29;43.61
74881;BME280;63427;49.654;6.596;2023-11-18T10:14:30;100455.97;;;10.44;43.43
74881;BME280;63427;49.654;6.596;2023-11-18T10:31:28;100403.52;;;10.74;43.50
74881;BME280;63427;49.654;6.596;2023-11-18T10:33:55;100400.54;;;10.66;43.20
74881;BME280;63427;49.654;6.596;2023-11-18T10:36:21;100395.16;;;10.66;43.59
74881;BME280;63427;49.654;6.596;2023-11-18T12:13:24;100271.95;;;11.63;41.01
74881;BME280;63427;49.654;6.596;2023-11-18T12:15:50;100264.47;;;10.89;41.03
74881;BME280;63427;49.654;6.596;2023-11-18T12:20:39;100255.09;;;11.71;41.20
74881;BME280;63427;49.654;6.596;2023-11-18T13:06:38;100067.94;;;11.98;40.64
74881;BME280;63427;49.654;6.596;2023-11-18T13:09:03;100075.32;;;11.96;41.00
74881;BME280;63427;49.654;6.596;2023-11-18T13:26:01;100112.31;;;11.98;39.85
74881;BME280;63427;49.654;6.596;2023-11-18T13:33:17;100113.28;;;12.45;39.57
74881;BME280;63427;49.654;6.596;2023-11-18T13:35:43;100120.54;;;12.19;39.90
74881;BME280;63427;49.654;6.596;2023-11-18T13:38:08;100123.26;;;12.01;40.71
74881;BME280;63427;49.654;6.596;2023-11-18T13:40:44;100124.03;;;12.03;40.25
74881;BME280;63427;49.654;6.596;2023-11-18T13:43:02;100125.72;;;11.94;40.16
74881;BME280;63427;49.654;6.596;2023-11-18T13:45:25;100122.87;;;11.69;41.06
74881;BME280;63427;49.654;6.596;2023-11-18T13:47:51;100119.91;;;11.62;41.36
74881;BME280;63427;49.654;6.596;2023-11-18T13:50:16;100117.20;;;11.74;41.53
74881;BME280;63427;49.654;6.596;2023-11-18T13:52:44;100109.82;;;11.21;43.15
74881;BME280;63427;49.654;6.596;2023-11-18T14:33:58;99993.72;;;10.52;46.11
74881;BME280;63427;49.654;6.596;2023-11-18T14:36:21;99989.82;;;10.97;44.71
74881;BME280;63427;49.654;6.596;2023-11-18T14:38:47;99996.33;;;11.19;44.93
74881;BME280;63427;49.654;6.596;2023-11-18T14:41:12;99989.04;;;10.93;45.18
74881;BME280;63427;49.654;6.596;2023-11-18T14:43:38;99983.43;;;10.72;45.43
74881;BME280;63427;49.654;6.596;2023-11-18T14:46:05;99975.14;;;10.46;45.82
74881;BME280;63427;49.654;6.596;2023-11-18T14:48:29;99960.80;;;10.93;46.44
74881;BME280;63427;49.654;6.596;2023-11-18T14:50:54;99943.71;;;10.82;45.86
74881;BME280;63427;49.654;6.596;2023-11-18T14:53:19;99943.89;;;10.69;45.48
74881;BME280;63427;49.654;6.596;2023-11-18T14:55:44;99941.00;;;10.96;46.22
74881;BME280;63427;49.654;6.596;2023-11-18T14:58:10;99943.08;;;10.98;46.23
74881;BME280;63427;49.654;6.596;2023-11-18T15:00:39;99946.64;;;10.86;45.90
74881;BME280;63427;49.654;6.596;2023-11-18T15:03:01;99944.67;;;11.27;45.36
74881;BME280;63427;49.654;6.596;2023-11-18T15:05:27;99960.89;;;10.99;45.19
74881;BME280;63427;49.654;6.596;2023-11-18T15:07:56;99974.88;;;10.71;45.65
74881;BME280;63427;49.654;6.596;2023-11-18T15:10:19;99974.34;;;10.80;45.52
74881;BME280;63427;49.654;6.596;2023-11-18T15:12:56;99981.94;;;11.01;45.26
74881;BME280;63427;49.654;6.596;2023-11-18T15:15:09;99977.97;;;10.23;46.40
74881;BME280;63427;49.654;6.596;2023-11-18T15:17:35;99961.27;;;10.32;46.26
74881;BME280;63427;49.654;6.596;2023-11-18T15:20:00;99934.96;;;11.10;46.23
74881;BME280;63427;49.654;6.596;2023-11-18T15:22:26;99918.34;;;11.03;45.70
74881;BME280;63427;49.654;6.596;2023-11-18T15:24:51;99907.84;;;9.98;47.56
74881;BME280;63427;49.654;6.596;2023-11-18T15:27:17;99892.39;;;10.42;47.21
74881;BME280;63427;49.654;6.596;2023-11-18T15:29:43;99872.39;;;10.78;47.17
74881;BME280;63427;49.654;6.596;2023-11-18T15:32:08;99863.98;;;10.58;46.63
74881;BME280;63427;49.654;6.596;2023-11-18T15:34:39;99873.22;;;11.02;46.22
74881;BME280;63427;49.654;6.596;2023-11-18T15:37:00;99883.38;;;11.00;45.52
74881;BME280;63427;49.654;6.596;2023-11-18T15:39:25;99893.20;;;10.98;46.19
74881;BME280;63427;49.654;6.596;2023-11-18T15:41:51;99891.37;;;10.78;45.21
74881;BME280;63427;49.654;6.596;2023-11-18T15:44:16;99900.88;;;11.37;45.49
74881;BME280;63427;49.654;6.596;2023-11-18T15:46:47;99916.26;;;10.90;45.60
74881;BME280;63427;49.654;6.596;2023-11-18T15:49:08;99933.32;;;11.05;45.69
74881;BME280;63427;49.654;6.596;2023-11-18T15:51:32;99931.05;;;10.85;46.13
74881;BME280;63427;49.654;6.596;2023-11-18T15:53:58;99918.53;;;10.94;46.03
74881;BME280;63427;49.654;6.596;2023-11-18T15:56:24;99914.70;;;10.51;46.54
74881;BME280;63427;49.654;6.596;2023-11-18T15:58:49;99904.41;;;9.95;48.59
74881;BME280;63427;49.654;6.596;2023-11-18T16:01:15;99902.66;;;10.27;47.99
74881;BME280;63427;49.654;6.596;2023-11-18T16:25:31;99868.81;;;11.19;46.05
74881;BME280;63427;49.654;6.596;2023-11-18T16:27:57;99869.12;;;11.17;46.04
74881;BME280;63427;49.654;6.596;2023-11-18T16:32:47;99863.68;;;10.88;46.68
74881;BME280;63427;49.654;6.596;2023-11-18T16:35:13;99852.87;;;10.25;47.89
74881;BME280;63427;49.654;6.596;2023-11-18T16:37:39;99843.32;;;10.89;47.05
74881;BME280;63427;49.654;6.596;2023-11-18T16:40:05;99832.56;;;10.85;46.99
74881;BME280;63427;49.654;6.596;2023-11-18T16:42:30;99819.80;;;10.88;46.89
74881;BME280;63427;49.654;6.596;2023-11-18T16:44:55;99815.69;;;10.65;47.61
74881;BME280;63427;49.654;6.596;2023-11-18T16:47:21;99803.21;;;11.14;46.91
74881;BME280;63427;49.654;6.596;2023-11-18T16:49:55;99796.60;;;10.95;46.96
74881;BME280;63427;49.654;6.596;2023-11-18T16:52:12;99783.15;;;10.77;47.54
74881;BME280;63427;49.654;6.596;2023-11-18T16:54:37;99781.02;;;10.95;47.33
74881;BME280;63427;49.654;6.596;2023-11-18T16:57:04;99774.95;;;10.72;46.94
74881;BME280;63427;49.654;6.596;2023-11-18T16:59:29;99765.82;;;11.16;46.32
74881;BME280;63427;49.654;6.596;2023-11-18T17:01:55;99786.61;;;10.79;47.19
74881;BME280;63427;49.654;6.596;2023-11-18T17:04:20;99806.94;;;11.04;47.02
74881;BME280;63427;49.654;6.596;2023-11-18T17:06:45;99809.00;;;10.99;47.09
74881;BME280;63427;49.654;6.596;2023-11-18T17:09:11;99804.73;;;11.02;46.83
74881;BME280;63427;49.654;6.596;2023-11-18T17:11:37;99794.77;;;10.83;46.99
74881;BME280;63427;49.654;6.596;2023-11-18T17:14:02;99786.28;;;10.54;47.40
74881;BME280;63427;49.654;6.596;2023-11-18T17:18:54;99825.71;;;10.80;47.57
74881;BME280;63427;49.654;6.596;2023-11-18T17:21:29;99834.69;;;10.59;47.30
74881;BME280;63427;49.654;6.596;2023-11-18T17:23:51;99845.57;;;10.32;48.63
74881;BME280;63427;49.654;6.596;2023-11-18T17:26:10;99837.30;;;10.22;48.98
74881;BME280;63427;49.654;6.596;2023-11-18T17:28:35;99831.96;;;9.45;50.52
74881;BME280;63427;49.654;6.596;2023-11-18T17:31:02;99832.90;;;10.23;49.13
74881;BME280;63427;49.654;6.596;2023-11-18T18:04:59;99749.33;;;10.94;48.22
74881;BME280;63427;49.654;6.596;2023-11-18T18:07:30;99722.54;;;10.74;47.73
74881;BME280;63427;49.654;6.596;2023-11-18T18:09:50;99709.30;;;10.67;48.49
74881;BME280;63427;49.654;6.596;2023-11-18T18:12:16;99693.15;;;10.62;48.28
74881;BME280;63427;49.654;6.596;2023-11-18T18:14:41;99647.20;;;10.82;48.64
74881;BME280;63427;49.654;6.596;2023-11-18T18:17:07;99597.82;;;10.40;49.01
74881;BME280;63427;49.654;6.596;2023-11-18T18:19:32;99577.64;;;10.08;49.82
74881;BME280;63427;49.654;6.596;2023-11-18T18:21:58;99620.56;;;10.74;48.88
74881;BME280;63427;49.654;6.596;2023-11-18T18:24:24;99617.77;;;10.49;49.42
74881;BME280;63427;49.654;6.596;2023-11-18T18:26:49;99634.46;;;10.64;49.17
74881;BME280;63427;49.654;6.596;2023-11-18T18:29:15;99652.12;;;10.54;48.80
74881;BME280;63427;49.654;6.596;2023-11-18T18:31:40;99692.22;;;10.83;48.97
74881;BME280;63427;49.654;6.596;2023-11-18T18:34:06;99737.03;;;10.76;48.98
74881;BME280;63427;49.654;6.596;2023-11-18T18:36:31;99743.73;;;10.32;50.14
74881;BME280;63427;49.654;6.596;2023-11-18T18:38:57;99752.86;;;10.55;49.84
74881;BME280;63427;49.654;6.596;2023-11-18T18:41:23;99757.71;;;10.37;49.29
74881;BME280;63427;49.654;6.596;2023-11-18T18:43:48;99758.33;;;9.92;50.88
74881;BME280;63427;49.654;6.596;2023-11-18T18:46:14;99754.80;;;10.54;49.86
74881;BME280;63427;49.654;6.596;2023-11-18T18:48:39;99751.70;;;10.82;49.48
74881;BME280;63427;49.654;6.596;2023-11-18T18:51:06;99737.93;;;10.61;49.37
74881;BME280;63427;49.654;6.596;2023-11-18T18:53:30;99725.77;;;10.73;48.91
74881;BME280;63427;49.654;6.596;2023-11-18T18:56:01;99721.97;;;11.08;48.43
74881;BME280;63427;49.654;6.596;2023-11-18T18:58:21;99742.12;;;11.47;47.74
74881;BME280;63427;49.654;6.596;2023-11-18T19:00:52;99748.12;;;11.80;47.29
74881;BME280;63427;49.654;6.596;2023-11-18T19:03:13;99749.35;;;11.72;46.39
74881;BME280;63427;49.654;6.596;2023-11-18T19:05:38;99760.10;;;11.69;46.46
74881;BME280;63427;49.654;6.596;2023-11-18T19:27:38;99731.31;;;12.35;44.97
74881;BME280;63427;49.654;6.596;2023-11-18T19:29:55;99720.65;;;12.37;45.10
74881;BME280;63427;49.654;6.596;2023-11-18T19:32:19;99710.27;;;12.24;45.63
74881;BME280;63427;49.654;6.596;2023-11-18T19:34:44;99707.72;;;12.21;45.67
74881;BME280;63427;49.654;6.596;2023-11-18T19:37:10;99703.67;;;12.14;45.78
74881;BME280;63427;49.654;6.596;2023-11-18T19:39:36;99701.89;;;11.32;47.28
74881;BME280;63427;49.654;6.596;2023-11-18T19:42:01;99701.60;;;11.89;46.39
74881;BME280;63427;49.654;6.596;2023-11-18T19:44:27;99698.97;;;10.59;48.78